sensor_id;sensor_type;location;lat;lon;timestamp;P1;durP1;ratioP1;P2;durP2;ratioP2
18905;SDS011;9585;51.018;4.282;2023-03-20T00:02:00;9.63;;;7.30;;
18905;SDS011;9585;51.018;4.282;2023-03-20T00:04:28;9.45;;;6.65;;
18905;SDS011;9585;51.018;4.282;2023-03-20T00:06:56;8.98;;;6.57;;
18905;SDS011;9585;51.018;4.282;2023-03-20T00:09:23;8.98;;;6.30;;
18905;SDS011;9585;51.018;4.282;2023-03-20T00:11:52;7.88;;;6.60;;
18905;SDS011;9585;51.018;4.282;2023-03-20T00:14:21;9.65;;;6.88;;
18905;SDS011;9585;51.018;4.282;2023-03-20T00:16:51;9.52;;;7.18;;
18905;SDS011;9585;51.018;4.282;2023-03-20T00:19:19;11.10;;;8.07;;
18905;SDS011;9585;51.018;4.282;2023-03-20T00:21:48;11.13;;;8.48;;
18905;SDS011;9585;51.018;4.282;2023-03-20T00:24:16;13.43;;;8.60;;
18905;SDS011;9585;51.018;4.282;2023-03-20T00:26:44;11.33;;;7.97;;
18905;SDS011;9585;51.018;4.282;2023-03-20T00:29:14;11.87;;;8.13;;
18905;SDS011;9585;51.018;4.282;2023-03-20T00:31:47;12.90;;;8.73;;
18905;SDS011;9585;51.018;4.282;2023-03-20T00:34:16;10.50;;;8.60;;
18905;SDS011;9585;51.018;4.282;2023-03-20T00:36:46;14.52;;;9.55;;
18905;SDS011;9585;51.018;4.282;2023-03-20T00:39:14;15.30;;;9.80;;
18905;SDS011;9585;51.018;4.282;2023-03-20T00:41:41;13.33;;;9.27;;
18905;SDS011;9585;51.018;4.282;2023-03-20T00:44:17;14.77;;;9.38;;
18905;SDS011;9585;51.018;4.282;2023-03-20T00:46:48;15.55;;;10.43;;
18905;SDS011;9585;51.018;4.282;2023-03-20T00:49:18;14.85;;;10.25;;
18905;SDS011;9585;51.018;4.282;2023-03-20T00:51:48;19.77;;;10.15;;
18905;SDS011;9585;51.018;4.282;2023-03-20T00:54:15;12.95;;;9.65;;
18905;SDS011;9585;51.018;4.282;2023-03-20T00:56:44;14.85;;;8.40;;
18905;SDS011;9585;51.018;4.282;2023-03-20T00:59:18;12.95;;;8.52;;
18905;SDS011;9585;51.018;4.282;2023-03-20T01:01:48;11.40;;;9.02;;
18905;SDS011;9585;51.018;4.282;2023-03-20T01:04:16;13.80;;;9.57;;
18905;SDS011;9585;51.018;4.282;2023-03-20T01:06:45;14.98;;;9.60;;
18905;SDS011;9585;51.018;4.282;2023-03-20T01:09:13;15.83;;;9.57;;
18905;SDS011;9585;51.018;4.282;2023-03-20T01:11:41;12.63;;;9.07;;
18905;SDS011;9585;51.018;4.282;2023-03-20T01:16:54;13.07;;;8.93;;
18905;SDS011;9585;51.018;4.282;2023-03-20T01:19:23;12.65;;;8.50;;
18905;SDS011;9585;51.018;4.282;2023-03-20T01:21:50;12.23;;;8.63;;
18905;SDS011;9585;51.018;4.282;2023-03-20T01:24:18;12.15;;;8.20;;
18905;SDS011;9585;51.018;4.282;2023-03-20T01:26:45;13.75;;;9.18;;
18905;SDS011;9585;51.018;4.282;2023-03-20T01:29:16;15.77;;;9.60;;
18905;SDS011;9585;51.018;4.282;2023-03-20T01:31:45;13.23;;;9.23;;
18905;SDS011;9585;51.018;4.282;2023-03-20T01:34:13;13.45;;;9.38;;
18905;SDS011;9585;51.018;4.282;2023-03-20T01:36:46;16.33;;;9.68;;
18905;SDS011;9585;51.018;4.282;2023-03-20T01:39:17;13.77;;;9.13;;
18905;SDS011;9585;51.018;4.282;2023-03-20T01:41:46;14.82;;;9.60;;
18905;SDS011;9585;51.018;4.282;2023-03-20T01:44:21;12.80;;;9.32;;
18905;SDS011;9585;51.018;4.282;2023-03-20T01:46:58;16.42;;;9.85;;
18905;SDS011;9585;51.018;4.282;2023-03-20T01:52:48;14.07;;;9.43;;
18905;SDS011;9585;51.018;4.282;2023-03-20T01:55:22;12.85;;;9.13;;
18905;SDS011;9585;51.018;4.282;2023-03-20T01:57:50;19.85;;;10.32;;
18905;SDS011;9585;51.018;4.282;2023-03-20T02:00:22;17.95;;;10.68;;
18905;SDS011;9585;51.018;4.282;2023-03-20T02:02:53;17.25;;;10.23;;
18905;SDS011;9585;51.018;4.282;2023-03-20T02:05:21;14.68;;;9.85;;
18905;SDS011;9585;51.018;4.282;2023-03-20T02:07:53;14.63;;;10.20;;
18905;SDS011;9585;51.018;4.282;2023-03-20T02:10:28;14.45;;;9.80;;
18905;SDS011;9585;51.018;4.282;2023-03-20T02:12:56;16.27;;;10.75;;
18905;SDS011;9585;51.018;4.282;2023-03-20T02:15:25;16.08;;;11.25;;
18905;SDS011;9585;51.018;4.282;2023-03-20T02:17:53;20.15;;;11.35;;
18905;SDS011;9585;51.018;4.282;2023-03-20T02:20:23;15.85;;;10.82;;
18905;SDS011;9585;51.018;4.282;2023-03-20T02:23:06;20.63;;;11.55;;
18905;SDS011;9585;51.018;4.282;2023-03-20T02:29:08;15.32;;;11.50;;
18905;SDS011;9585;51.018;4.282;2023-03-20T02:35:17;18.35;;;11.07;;
18905;SDS011;9585;51.018;4.282;2023-03-20T02:41:13;20.00;;;10.80;;
18905;SDS011;9585;51.018;4.282;2023-03-20T02:43:54;18.55;;;10.77;;
18905;SDS011;9585;51.018;4.282;2023-03-20T02:46:32;17.83;;;11.05;;
18905;SDS011;9585;51.018;4.282;2023-03-20T02:49:09;17.42;;;10.10;;
18905;SDS011;9585;51.018;4.282;2023-03-20T02:51:47;15.43;;;10.18;;
18905;SDS011;9585;51.018;4.282;2023-03-20T02:54:22;18.48;;;10.30;;
18905;SDS011;9585;51.018;4.282;2023-03-20T02:56:59;18.60;;;10.93;;
18905;SDS011;9585;51.018;4.282;2023-03-20T02:59:31;20.15;;;11.00;;
18905;SDS011;9585;51.018;4.282;2023-03-20T03:02:08;18.15;;;9.93;;
18905;SDS011;9585;51.018;4.282;2023-03-20T03:04:43;19.60;;;9.90;;
18905;SDS011;9585;51.018;4.282;2023-03-20T03:07:15;15.38;;;9.88;;
18905;SDS011;9585;51.018;4.282;2023-03-20T03:09:48;21.35;;;10.25;;
18905;SDS011;9585;51.018;4.282;2023-03-20T03:12:21;18.92;;;10.57;;
18905;SDS011;9585;51.018;4.282;2023-03-20T03:14:51;16.27;;;9.75;;
18905;SDS011;9585;51.018;4.282;2023-03-20T03:17:22;18.30;;;9.68;;
18905;SDS011;9585;51.018;4.282;2023-03-20T03:19:53;16.27;;;9.63;;
18905;SDS011;9585;51.018;4.282;2023-03-20T03:22:25;17.55;;;9.40;;
18905;SDS011;9585;51.018;4.282;2023-03-20T03:24:53;19.80;;;9.52;;
18905;SDS011;9585;51.018;4.282;2023-03-20T03:27:23;17.83;;;9.82;;
18905;SDS011;9585;51.018;4.282;2023-03-20T03:29:54;20.48;;;9.60;;
18905;SDS011;9585;51.018;4.282;2023-03-20T03:32:29;16.83;;;9.73;;
18905;SDS011;9585;51.018;4.282;2023-03-20T03:34:59;19.77;;;9.23;;
18905;SDS011;9585;51.018;4.282;2023-03-20T03:37:40;15.95;;;9.43;;
18905;SDS011;9585;51.018;4.282;2023-03-20T03:40:17;17.23;;;9.20;;
18905;SDS011;9585;51.018;4.282;2023-03-20T03:42:54;18.60;;;9.82;;
18905;SDS011;9585;51.018;4.282;2023-03-20T03:45:25;19.90;;;10.60;;
18905;SDS011;9585;51.018;4.282;2023-03-20T03:47:58;19.70;;;9.70;;
18905;SDS011;9585;51.018;4.282;2023-03-20T03:50:32;18.38;;;9.07;;
18905;SDS011;9585;51.018;4.282;2023-03-20T03:53:05;18.00;;;9.13;;
18905;SDS011;9585;51.018;4.282;2023-03-20T03:55:37;18.75;;;9.77;;
18905;SDS011;9585;51.018;4.282;2023-03-20T03:58:10;20.73;;;10.27;;
18905;SDS011;9585;51.018;4.282;2023-03-20T04:00:41;16.38;;;9.80;;
18905;SDS011;9585;51.018;4.282;2023-03-20T04:03:12;19.33;;;9.48;;
18905;SDS011;9585;51.018;4.282;2023-03-20T04:05:41;18.45;;;9.23;;
18905;SDS011;9585;51.018;4.282;2023-03-20T04:08:12;16.92;;;9.25;;
18905;SDS011;9585;51.018;4.282;2023-03-20T04:10:42;19.63;;;9.50;;
18905;SDS011;9585;51.018;4.282;2023-03-20T04:13:12;15.57;;;9.13;;
18905;SDS011;9585;51.018;4.282;2023-03-20T04:15:40;19.88;;;9.57;;
18905;SDS011;9585;51.018;4.282;2023-03-20T04:18:08;17.52;;;8.63;;
18905;SDS011;9585;51.018;4.282;2023-03-20T04:20:41;17.35;;;9.20;;
18905;SDS011;9585;51.018;4.282;2023-03-20T04:23:09;19.23;;;9.18;;
18905;SDS011;9585;51.018;4.282;2023-03-20T04:25:36;16.27;;;8.13;;
18905;SDS011;9585;51.018;4.282;2023-03-20T04:28:07;16.58;;;8.73;;
18905;SDS011;9585;51.018;4.282;2023-03-20T04:30:41;17.15;;;8.50;;
18905;SDS011;9585;51.018;4.282;2023-03-20T04:33:12;18.95;;;9.00;;
18905;SDS011;9585;51.018;4.282;2023-03-20T04:35:39;20.20;;;9.40;;
18905;SDS011;9585;51.018;4.282;2023-03-20T04:38:07;18.40;;;9.25;;
18905;SDS011;9585;51.018;4.282;2023-03-20T04:40:34;16.10;;;8.93;;
18905;SDS011;9585;51.018;4.282;2023-03-20T04:43:02;17.52;;;8.20;;
18905;SDS011;9585;51.018;4.282;2023-03-20T04:45:29;18.60;;;9.15;;
18905;SDS011;9585;51.018;4.282;2023-03-20T04:47:58;16.52;;;8.05;;
18905;SDS011;9585;51.018;4.282;2023-03-20T04:50:26;17.55;;;8.63;;
18905;SDS011;9585;51.018;4.282;2023-03-20T04:53:03;19.55;;;9.10;;
18905;SDS011;9585;51.018;4.282;2023-03-20T04:55:31;17.65;;;8.40;;
18905;SDS011;9585;51.018;4.282;2023-03-20T04:57:59;14.63;;;8.57;;
18905;SDS011;9585;51.018;4.282;2023-03-20T05:00:26;15.60;;;8.05;;
18905;SDS011;9585;51.018;4.282;2023-03-20T05:02:54;17.08;;;8.52;;
18905;SDS011;9585;51.018;4.282;2023-03-20T05:05:23;15.55;;;7.75;;
18905;SDS011;9585;51.018;4.282;2023-03-20T05:07:51;15.65;;;7.97;;
18905;SDS011;9585;51.018;4.282;2023-03-20T05:10:19;15.98;;;8.32;;
18905;SDS011;9585;51.018;4.282;2023-03-20T05:12:46;18.20;;;8.85;;
18905;SDS011;9585;51.018;4.282;2023-03-20T05:15:14;17.13;;;8.13;;
18905;SDS011;9585;51.018;4.282;2023-03-20T05:17:41;14.50;;;8.23;;
18905;SDS011;9585;51.018;4.282;2023-03-20T05:20:09;16.98;;;7.85;;
18905;SDS011;9585;51.018;4.282;2023-03-20T05:22:38;17.58;;;8.68;;
18905;SDS011;9585;51.018;4.282;2023-03-20T05:25:06;17.67;;;8.38;;
18905;SDS011;9585;51.018;4.282;2023-03-20T05:27:34;18.27;;;8.68;;
18905;SDS011;9585;51.018;4.282;2023-03-20T05:30:01;12.85;;;7.53;;
18905;SDS011;9585;51.018;4.282;2023-03-20T05:32:32;16.98;;;7.53;;
18905;SDS011;9585;51.018;4.282;2023-03-20T05:35:01;18.17;;;8.40;;
18905;SDS011;9585;51.018;4.282;2023-03-20T05:37:28;17.58;;;7.93;;
18905;SDS011;9585;51.018;4.282;2023-03-20T05:39:57;15.45;;;8.15;;
18905;SDS011;9585;51.018;4.282;2023-03-20T05:42:25;18.02;;;8.18;;
18905;SDS011;9585;51.018;4.282;2023-03-20T05:44:52;12.65;;;7.38;;
18905;SDS011;9585;51.018;4.282;2023-03-20T05:47:19;12.90;;;7.85;;
18905;SDS011;9585;51.018;4.282;2023-03-20T05:49:47;18.63;;;8.27;;
18905;SDS011;9585;51.018;4.282;2023-03-20T05:52:14;14.93;;;7.65;;
18905;SDS011;9585;51.018;4.282;2023-03-20T05:54:41;13.77;;;7.55;;
18905;SDS011;9585;51.018;4.282;2023-03-20T05:57:10;17.15;;;7.82;;
18905;SDS011;9585;51.018;4.282;2023-03-20T05:59:37;16.90;;;7.55;;
18905;SDS011;9585;51.018;4.282;2023-03-20T06:02:05;13.82;;;7.25;;
18905;SDS011;9585;51.018;4.282;2023-03-20T06:04:35;14.25;;;7.43;;
18905;SDS011;9585;51.018;4.282;2023-03-20T06:07:03;17.48;;;7.72;;
18905;SDS011;9585;51.018;4.282;2023-03-20T06:09:37;14.95;;;6.75;;
18905;SDS011;9585;51.018;4.282;2023-03-20T06:12:04;17.00;;;7.43;;
18905;SDS011;9585;51.018;4.282;2023-03-20T06:14:34;17.33;;;7.38;;
18905;SDS011;9585;51.018;4.282;2023-03-20T06:17:03;13.93;;;6.47;;
18905;SDS011;9585;51.018;4.282;2023-03-20T06:19:33;11.02;;;5.97;;
18905;SDS011;9585;51.018;4.282;2023-03-20T06:22:01;10.85;;;6.15;;
18905;SDS011;9585;51.018;4.282;2023-03-20T06:24:28;15.20;;;6.10;;
18905;SDS011;9585;51.018;4.282;2023-03-20T06:26:55;15.48;;;6.40;;
18905;SDS011;9585;51.018;4.282;2023-03-20T06:29:23;15.50;;;6.30;;
18905;SDS011;9585;51.018;4.282;2023-03-20T06:31:52;11.13;;;5.78;;
18905;SDS011;9585;51.018;4.282;2023-03-20T06:34:19;15.35;;;5.95;;
18905;SDS011;9585;51.018;4.282;2023-03-20T06:36:47;14.50;;;6.00;;
18905;SDS011;9585;51.018;4.282;2023-03-20T06:39:14;17.58;;;5.78;;
18905;SDS011;9585;51.018;4.282;2023-03-20T06:41:42;11.30;;;5.88;;
18905;SDS011;9585;51.018;4.282;2023-03-20T06:44:09;17.20;;;6.65;;
18905;SDS011;9585;51.018;4.282;2023-03-20T06:46:37;9.77;;;5.55;;
18905;SDS011;9585;51.018;4.282;2023-03-20T06:49:06;11.93;;;5.38;;
18905;SDS011;9585;51.018;4.282;2023-03-20T06:51:36;15.27;;;5.32;;
18905;SDS011;9585;51.018;4.282;2023-03-20T06:54:05;10.93;;;5.30;;
18905;SDS011;9585;51.018;4.282;2023-03-20T06:56:33;11.63;;;5.60;;
18905;SDS011;9585;51.018;4.282;2023-03-20T06:59:00;15.75;;;6.03;;
18905;SDS011;9585;51.018;4.282;2023-03-20T07:01:28;10.57;;;5.78;;
18905;SDS011;9585;51.018;4.282;2023-03-20T07:03:55;17.85;;;11.13;;
18905;SDS011;9585;51.018;4.282;2023-03-20T07:06:24;11.80;;;6.22;;
18905;SDS011;9585;51.018;4.282;2023-03-20T07:08:52;12.88;;;7.22;;
18905;SDS011;9585;51.018;4.282;2023-03-20T07:11:19;11.32;;;5.95;;
18905;SDS011;9585;51.018;4.282;2023-03-20T07:13:47;10.90;;;5.07;;
18905;SDS011;9585;51.018;4.282;2023-03-20T07:16:16;10.00;;;5.35;;
18905;SDS011;9585;51.018;4.282;2023-03-20T07:18:47;10.18;;;4.65;;
18905;SDS011;9585;51.018;4.282;2023-03-20T07:21:20;12.63;;;5.07;;
18905;SDS011;9585;51.018;4.282;2023-03-20T07:23:52;10.93;;;5.07;;
18905;SDS011;9585;51.018;4.282;2023-03-20T07:26:20;10.27;;;4.80;;
18905;SDS011;9585;51.018;4.282;2023-03-20T07:28:47;11.05;;;5.15;;
18905;SDS011;9585;51.018;4.282;2023-03-20T07:31:20;14.15;;;4.70;;
18905;SDS011;9585;51.018;4.282;2023-03-20T07:33:48;10.70;;;4.18;;
18905;SDS011;9585;51.018;4.282;2023-03-20T07:36:16;7.50;;;3.88;;
18905;SDS011;9585;51.018;4.282;2023-03-20T07:38:46;11.10;;;4.25;;
18905;SDS011;9585;51.018;4.282;2023-03-20T07:41:20;7.47;;;4.25;;
18905;SDS011;9585;51.018;4.282;2023-03-20T07:43:48;9.23;;;4.68;;
18905;SDS011;9585;51.018;4.282;2023-03-20T07:46:18;14.98;;;5.03;;
18905;SDS011;9585;51.018;4.282;2023-03-20T07:48:48;8.75;;;4.20;;
18905;SDS011;9585;51.018;4.282;2023-03-20T07:51:15;9.32;;;3.88;;
18905;SDS011;9585;51.018;4.282;2023-03-20T07:53:43;10.95;;;3.70;;
18905;SDS011;9585;51.018;4.282;2023-03-20T07:56:10;13.82;;;5.78;;
18905;SDS011;9585;51.018;4.282;2023-03-20T07:58:39;7.70;;;4.00;;
18905;SDS011;9585;51.018;4.282;2023-03-20T08:01:06;13.38;;;5.40;;
18905;SDS011;9585;51.018;4.282;2023-03-20T08:03:34;10.68;;;4.70;;
18905;SDS011;9585;51.018;4.282;2023-03-20T08:06:03;11.38;;;6.03;;
18905;SDS011;9585;51.018;4.282;2023-03-20T08:08:44;11.60;;;3.92;;
18905;SDS011;9585;51.018;4.282;2023-03-20T08:11:11;9.07;;;3.53;;
18905;SDS011;9585;51.018;4.282;2023-03-20T08:13:42;9.13;;;3.97;;
18905;SDS011;9585;51.018;4.282;2023-03-20T08:16:10;8.00;;;4.38;;
18905;SDS011;9585;51.018;4.282;2023-03-20T08:18:37;8.10;;;4.22;;
18905;SDS011;9585;51.018;4.282;2023-03-20T08:21:05;9.93;;;3.70;;
18905;SDS011;9585;51.018;4.282;2023-03-20T08:23:32;9.60;;;3.45;;
18905;SDS011;9585;51.018;4.282;2023-03-20T08:26:00;7.10;;;3.28;;
18905;SDS011;9585;51.018;4.282;2023-03-20T08:28:27;13.13;;;5.88;;
18905;SDS011;9585;51.018;4.282;2023-03-20T08:30:59;8.10;;;3.70;;
18905;SDS011;9585;51.018;4.282;2023-03-20T08:33:26;11.63;;;5.45;;
18905;SDS011;9585;51.018;4.282;2023-03-20T08:35:57;9.98;;;4.30;;
18905;SDS011;9585;51.018;4.282;2023-03-20T08:38:28;10.55;;;4.15;;
18905;SDS011;9585;51.018;4.282;2023-03-20T08:40:55;8.45;;;5.38;;
18905;SDS011;9585;51.018;4.282;2023-03-20T08:43:23;9.27;;;4.13;;
18905;SDS011;9585;51.018;4.282;2023-03-20T08:45:52;9.43;;;5.10;;
18905;SDS011;9585;51.018;4.282;2023-03-20T08:48:22;10.10;;;4.28;;
18905;SDS011;9585;51.018;4.282;2023-03-20T08:50:50;7.90;;;3.97;;
18905;SDS011;9585;51.018;4.282;2023-03-20T08:53:17;12.50;;;8.60;;
18905;SDS011;9585;51.018;4.282;2023-03-20T08:55:46;10.15;;;5.50;;
18905;SDS011;9585;51.018;4.282;2023-03-20T08:58:14;16.48;;;7.43;;
18905;SDS011;9585;51.018;4.282;2023-03-20T09:00:44;8.60;;;4.22;;
18905;SDS011;9585;51.018;4.282;2023-03-20T09:03:14;12.05;;;3.65;;
18905;SDS011;9585;51.018;4.282;2023-03-20T09:05:45;7.43;;;4.05;;
18905;SDS011;9585;51.018;4.282;2023-03-20T09:08:12;12.65;;;4.00;;
18905;SDS011;9585;51.018;4.282;2023-03-20T09:10:40;10.18;;;4.13;;
18905;SDS011;9585;51.018;4.282;2023-03-20T09:13:08;9.75;;;3.92;;
18905;SDS011;9585;51.018;4.282;2023-03-20T09:15:35;10.45;;;5.18;;
18905;SDS011;9585;51.018;4.282;2023-03-20T09:18:05;10.88;;;5.45;;
18905;SDS011;9585;51.018;4.282;2023-03-20T09:20:33;13.85;;;6.38;;
18905;SDS011;9585;51.018;4.282;2023-03-20T09:23:03;13.88;;;7.22;;
18905;SDS011;9585;51.018;4.282;2023-03-20T09:25:39;10.73;;;4.60;;
18905;SDS011;9585;51.018;4.282;2023-03-20T09:28:07;9.40;;;4.90;;
18905;SDS011;9585;51.018;4.282;2023-03-20T09:30:34;11.25;;;7.22;;
18905;SDS011;9585;51.018;4.282;2023-03-20T09:33:07;11.75;;;7.43;;
18905;SDS011;9585;51.018;4.282;2023-03-20T09:35:35;9.95;;;4.97;;
18905;SDS011;9585;51.018;4.282;2023-03-20T09:38:04;8.15;;;3.63;;
18905;SDS011;9585;51.018;4.282;2023-03-20T09:40:35;9.45;;;3.88;;
18905;SDS011;9585;51.018;4.282;2023-03-20T09:43:41;6.68;;;3.20;;
18905;SDS011;9585;51.018;4.282;2023-03-20T09:46:20;7.53;;;3.25;;
18905;SDS011;9585;51.018;4.282;2023-03-20T09:48:56;9.05;;;3.75;;
18905;SDS011;9585;51.018;4.282;2023-03-20T09:51:30;9.63;;;3.42;;
18905;SDS011;9585;51.018;4.282;2023-03-20T09:54:06;6.75;;;3.30;;
18905;SDS011;9585;51.018;4.282;2023-03-20T09:56:40;8.15;;;3.15;;
18905;SDS011;9585;51.018;4.282;2023-03-20T09:59:29;7.38;;;3.35;;
18905;SDS011;9585;51.018;4.282;2023-03-20T10:02:01;9.38;;;4.10;;
18905;SDS011;9585;51.018;4.282;2023-03-20T10:04:32;9.95;;;4.00;;
18905;SDS011;9585;51.018;4.282;2023-03-20T10:07:02;8.60;;;3.20;;
18905;SDS011;9585;51.018;4.282;2023-03-20T10:09:32;9.73;;;4.35;;
18905;SDS011;9585;51.018;4.282;2023-03-20T10:12:12;10.30;;;3.80;;
18905;SDS011;9585;51.018;4.282;2023-03-20T10:15:00;7.20;;;3.53;;
18905;SDS011;9585;51.018;4.282;2023-03-20T10:17:43;10.77;;;3.22;;
18905;SDS011;9585;51.018;4.282;2023-03-20T10:20:21;9.02;;;4.13;;
18905;SDS011;9585;51.018;4.282;2023-03-20T10:22:54;7.72;;;4.38;;
18905;SDS011;9585;51.018;4.282;2023-03-20T10:25:27;9.98;;;4.22;;
18905;SDS011;9585;51.018;4.282;2023-03-20T10:27:58;7.78;;;3.78;;
18905;SDS011;9585;51.018;4.282;2023-03-20T10:30:33;10.13;;;3.22;;
18905;SDS011;9585;51.018;4.282;2023-03-20T10:33:12;8.32;;;3.38;;
18905;SDS011;9585;51.018;4.282;2023-03-20T10:35:56;8.13;;;3.30;;
18905;SDS011;9585;51.018;4.282;2023-03-20T10:38:33;12.88;;;3.85;;
18905;SDS011;9585;51.018;4.282;2023-03-20T10:41:11;8.32;;;3.35;;
18905;SDS011;9585;51.018;4.282;2023-03-20T10:43:43;10.82;;;3.67;;
18905;SDS011;9585;51.018;4.282;2023-03-20T10:46:25;11.73;;;3.83;;
18905;SDS011;9585;51.018;4.282;2023-03-20T10:48:56;10.88;;;4.03;;
18905;SDS011;9585;51.018;4.282;2023-03-20T10:51:30;6.55;;;3.80;;
18905;SDS011;9585;51.018;4.282;2023-03-20T10:54:05;12.05;;;4.07;;
18905;SDS011;9585;51.018;4.282;2023-03-20T10:56:46;10.70;;;3.72;;
18905;SDS011;9585;51.018;4.282;2023-03-20T10:59:17;9.20;;;4.13;;
18905;SDS011;9585;51.018;4.282;2023-03-20T11:01:48;10.77;;;5.78;;
18905;SDS011;9585;51.018;4.282;2023-03-20T11:04:24;6.93;;;3.05;;
18905;SDS011;9585;51.018;4.282;2023-03-20T11:06:54;10.40;;;5.05;;
18905;SDS011;9585;51.018;4.282;2023-03-20T11:09:27;8.40;;;3.58;;
18905;SDS011;9585;51.018;4.282;2023-03-20T11:11:58;7.15;;;3.50;;
18905;SDS011;9585;51.018;4.282;2023-03-20T11:14:31;6.75;;;3.45;;
18905;SDS011;9585;51.018;4.282;2023-03-20T11:17:01;11.23;;;4.20;;
18905;SDS011;9585;51.018;4.282;2023-03-20T11:19:31;9.85;;;3.67;;
18905;SDS011;9585;51.018;4.282;2023-03-20T11:22:00;8.40;;;3.40;;
18905;SDS011;9585;51.018;4.282;2023-03-20T11:24:34;9.00;;;3.72;;
18905;SDS011;9585;51.018;4.282;2023-03-20T11:27:08;8.55;;;3.92;;
18905;SDS011;9585;51.018;4.282;2023-03-20T11:29:37;9.82;;;4.20;;
18905;SDS011;9585;51.018;4.282;2023-03-20T11:32:06;6.78;;;3.30;;
18905;SDS011;9585;51.018;4.282;2023-03-20T11:34:41;10.60;;;3.10;;
18905;SDS011;9585;51.018;4.282;2023-03-20T11:37:21;8.80;;;3.60;;
18905;SDS011;9585;51.018;4.282;2023-03-20T11:39:55;9.48;;;3.72;;
18905;SDS011;9585;51.018;4.282;2023-03-20T11:42:25;9.35;;;3.45;;
18905;SDS011;9585;51.018;4.282;2023-03-20T11:45:03;8.38;;;3.47;;
18905;SDS011;9585;51.018;4.282;2023-03-20T11:47:32;9.43;;;3.22;;
18905;SDS011;9585;51.018;4.282;2023-03-20T11:50:02;8.23;;;3.20;;
18905;SDS011;9585;51.018;4.282;2023-03-20T11:52:31;10.80;;;3.65;;
18905;SDS011;9585;51.018;4.282;2023-03-20T11:55:04;9.73;;;3.20;;
18905;SDS011;9585;51.018;4.282;2023-03-20T11:57:35;8.13;;;3.13;;
18905;SDS011;9585;51.018;4.282;2023-03-20T12:00:05;11.05;;;6.40;;
18905;SDS011;9585;51.018;4.282;2023-03-20T12:02:42;10.13;;;2.95;;
18905;SDS011;9585;51.018;4.282;2023-03-20T12:07:57;9.52;;;3.65;;
18905;SDS011;9585;51.018;4.282;2023-03-20T12:10:32;9.55;;;3.47;;
18905;SDS011;9585;51.018;4.282;2023-03-20T12:13:05;8.07;;;2.88;;
18905;SDS011;9585;51.018;4.282;2023-03-20T12:15:39;8.90;;;3.40;;
18905;SDS011;9585;51.018;4.282;2023-03-20T12:18:10;8.95;;;3.88;;
18905;SDS011;9585;51.018;4.282;2023-03-20T12:20:53;8.07;;;4.25;;
18905;SDS011;9585;51.018;4.282;2023-03-20T12:23:30;8.80;;;4.05;;
18905;SDS011;9585;51.018;4.282;2023-03-20T12:26:02;7.18;;;3.33;;
18905;SDS011;9585;51.018;4.282;2023-03-20T12:28:39;7.70;;;3.00;;
18905;SDS011;9585;51.018;4.282;2023-03-20T12:31:16;9.30;;;3.95;;
18905;SDS011;9585;51.018;4.282;2023-03-20T12:33:51;9.57;;;3.15;;
18905;SDS011;9585;51.018;4.282;2023-03-20T12:36:24;9.38;;;3.50;;
18905;SDS011;9585;51.018;4.282;2023-03-20T12:38:56;11.75;;;3.40;;
18905;SDS011;9585;51.018;4.282;2023-03-20T12:41:25;10.45;;;3.80;;
18905;SDS011;9585;51.018;4.282;2023-03-20T12:44:06;12.05;;;4.93;;
18905;SDS011;9585;51.018;4.282;2023-03-20T12:46:43;13.07;;;6.03;;
18905;SDS011;9585;51.018;4.282;2023-03-20T12:49:24;10.27;;;4.70;;
18905;SDS011;9585;51.018;4.282;2023-03-20T12:52:00;11.98;;;4.70;;
18905;SDS011;9585;51.018;4.282;2023-03-20T12:54:42;8.73;;;4.55;;
18905;SDS011;9585;51.018;4.282;2023-03-20T12:57:21;8.18;;;3.60;;
18905;SDS011;9585;51.018;4.282;2023-03-20T13:00:07;9.25;;;3.70;;
18905;SDS011;9585;51.018;4.282;2023-03-20T13:02:50;10.05;;;3.72;;
18905;SDS011;9585;51.018;4.282;2023-03-20T13:05:32;10.93;;;4.93;;
18905;SDS011;9585;51.018;4.282;2023-03-20T13:08:21;8.48;;;4.43;;
18905;SDS011;9585;51.018;4.282;2023-03-20T13:11:04;8.85;;;4.65;;
18905;SDS011;9585;51.018;4.282;2023-03-20T13:13:48;11.52;;;4.75;;
18905;SDS011;9585;51.018;4.282;2023-03-20T13:16:24;9.65;;;5.03;;
18905;SDS011;9585;51.018;4.282;2023-03-20T13:19:00;9.13;;;5.00;;
18905;SDS011;9585;51.018;4.282;2023-03-20T13:21:32;11.57;;;6.22;;
18905;SDS011;9585;51.018;4.282;2023-03-20T13:24:21;18.85;;;10.00;;
18905;SDS011;9585;51.018;4.282;2023-03-20T13:26:58;11.48;;;5.82;;
18905;SDS011;9585;51.018;4.282;2023-03-20T13:29:31;17.67;;;10.07;;
18905;SDS011;9585;51.018;4.282;2023-03-20T13:32:11;16.10;;;7.63;;
18905;SDS011;9585;51.018;4.282;2023-03-20T13:34:53;9.65;;;6.03;;
18905;SDS011;9585;51.018;4.282;2023-03-20T13:37:44;10.82;;;5.35;;
18905;SDS011;9585;51.018;4.282;2023-03-20T13:40:17;13.15;;;4.75;;
18905;SDS011;9585;51.018;4.282;2023-03-20T13:42:49;9.95;;;4.68;;
18905;SDS011;9585;51.018;4.282;2023-03-20T13:45:24;11.27;;;5.15;;
18905;SDS011;9585;51.018;4.282;2023-03-20T13:47:57;14.43;;;4.97;;
18905;SDS011;9585;51.018;4.282;2023-03-20T13:50:42;10.55;;;5.72;;
18905;SDS011;9585;51.018;4.282;2023-03-20T13:53:18;12.07;;;4.43;;
18905;SDS011;9585;51.018;4.282;2023-03-20T13:55:54;12.35;;;4.32;;
18905;SDS011;9585;51.018;4.282;2023-03-20T13:58:36;11.60;;;4.45;;
18905;SDS011;9585;51.018;4.282;2023-03-20T14:01:20;8.20;;;3.83;;
18905;SDS011;9585;51.018;4.282;2023-03-20T14:03:54;12.30;;;5.00;;
18905;SDS011;9585;51.018;4.282;2023-03-20T14:09:25;11.00;;;4.35;;
18905;SDS011;9585;51.018;4.282;2023-03-20T14:11:59;13.43;;;6.13;;
18905;SDS011;9585;51.018;4.282;2023-03-20T14:14:32;12.32;;;4.90;;
18905;SDS011;9585;51.018;4.282;2023-03-20T14:17:13;13.02;;;4.97;;
18905;SDS011;9585;51.018;4.282;2023-03-20T14:19:44;12.80;;;4.45;;
18905;SDS011;9585;51.018;4.282;2023-03-20T14:22:15;12.95;;;5.20;;
18905;SDS011;9585;51.018;4.282;2023-03-20T14:24:50;12.82;;;5.03;;
18905;SDS011;9585;51.018;4.282;2023-03-20T14:27:23;12.75;;;5.03;;
18905;SDS011;9585;51.018;4.282;2023-03-20T14:29:53;11.82;;;4.70;;
18905;SDS011;9585;51.018;4.282;2023-03-20T14:32:21;15.23;;;5.35;;
18905;SDS011;9585;51.018;4.282;2023-03-20T14:35:00;10.43;;;5.03;;
18905;SDS011;9585;51.018;4.282;2023-03-20T14:37:57;12.60;;;5.85;;
18905;SDS011;9585;51.018;4.282;2023-03-20T14:40:49;10.20;;;4.68;;
18905;SDS011;9585;51.018;4.282;2023-03-20T14:43:31;12.75;;;5.28;;
18905;SDS011;9585;51.018;4.282;2023-03-20T14:46:07;10.60;;;4.30;;
18905;SDS011;9585;51.018;4.282;2023-03-20T14:48:51;10.57;;;4.63;;
18905;SDS011;9585;51.018;4.282;2023-03-20T14:51:29;12.73;;;5.68;;
18905;SDS011;9585;51.018;4.282;2023-03-20T14:56:50;20.38;;;13.52;;
18905;SDS011;9585;51.018;4.282;2023-03-20T14:59:18;12.90;;;5.85;;
18905;SDS011;9585;51.018;4.282;2023-03-20T15:01:52;13.35;;;5.35;;
18905;SDS011;9585;51.018;4.282;2023-03-20T15:04:23;16.95;;;5.88;;
18905;SDS011;9585;51.018;4.282;2023-03-20T15:06:59;12.68;;;5.53;;
18905;SDS011;9585;51.018;4.282;2023-03-20T15:09:30;13.40;;;4.80;;
18905;SDS011;9585;51.018;4.282;2023-03-20T15:12:01;12.40;;;4.78;;
18905;SDS011;9585;51.018;4.282;2023-03-20T15:14:31;11.07;;;4.60;;
18905;SDS011;9585;51.018;4.282;2023-03-20T15:19:49;10.75;;;5.22;;
18905;SDS011;9585;51.018;4.282;2023-03-20T15:22:18;10.77;;;4.00;;
18905;SDS011;9585;51.018;4.282;2023-03-20T15:24:52;11.35;;;4.30;;
18905;SDS011;9585;51.018;4.282;2023-03-20T15:27:21;11.27;;;4.68;;
18905;SDS011;9585;51.018;4.282;2023-03-20T15:29:54;8.82;;;4.18;;
18905;SDS011;9585;51.018;4.282;2023-03-20T15:32:22;11.13;;;4.72;;
18905;SDS011;9585;51.018;4.282;2023-03-20T15:34:50;10.25;;;4.93;;
18905;SDS011;9585;51.018;4.282;2023-03-20T15:37:20;10.50;;;5.22;;
18905;SDS011;9585;51.018;4.282;2023-03-20T15:39:53;12.65;;;6.85;;
18905;SDS011;9585;51.018;4.282;2023-03-20T15:42:23;14.70;;;6.90;;
18905;SDS011;9585;51.018;4.282;2023-03-20T15:44:53;11.82;;;4.80;;
18905;SDS011;9585;51.018;4.282;2023-03-20T15:47:21;9.55;;;5.32;;